sensor_id;sensor_type;location;lat;lon;timestamp;P1;durP1;ratioP1;P2;durP2;ratioP2
67747;SDS011;54543;50.712;6.070;2023-04-12T00:02:07;2.17;;;1.15;;
67747;SDS011;54543;50.712;6.070;2023-04-12T00:04:33;2.85;;;1.40;;
67747;SDS011;54543;50.712;6.070;2023-04-12T00:07:00;1.65;;;1.15;;
67747;SDS011;54543;50.712;6.070;2023-04-12T00:09:29;2.92;;;1.35;;
67747;SDS011;54543;50.712;6.070;2023-04-12T00:11:55;2.17;;;0.90;;
67747;SDS011;54543;50.712;6.070;2023-04-12T00:14:22;2.10;;;1.00;;
67747;SDS011;54543;50.712;6.070;2023-04-12T00:16:48;1.55;;;0.90;;
67747;SDS011;54543;50.712;6.070;2023-04-12T00:19:14;3.13;;;1.08;;
67747;SDS011;54543;50.712;6.070;2023-04-12T00:21:41;1.73;;;1.00;;
67747;SDS011;54543;50.712;6.070;2023-04-12T00:24:07;2.90;;;1.00;;
67747;SDS011;54543;50.712;6.070;2023-04-12T00:26:32;1.23;;;0.75;;
67747;SDS011;54543;50.712;6.070;2023-04-12T00:28:58;0.82;;;0.73;;
67747;SDS011;54543;50.712;6.070;2023-04-12T00:31:24;2.05;;;0.90;;
67747;SDS011;54543;50.712;6.070;2023-04-12T00:33:49;0.85;;;0.75;;
67747;SDS011;54543;50.712;6.070;2023-04-12T00:36:15;2.60;;;0.80;;
67747;SDS011;54543;50.712;6.070;2023-04-12T00:38:41;1.45;;;0.70;;
67747;SDS011;54543;50.712;6.070;2023-04-12T00:41:07;2.45;;;1.10;;
67747;SDS011;54543;50.712;6.070;2023-04-12T00:43:32;2.63;;;0.93;;
67747;SDS011;54543;50.712;6.070;2023-04-12T00:45:58;1.67;;;0.90;;
67747;SDS011;54543;50.712;6.070;2023-04-12T00:48:24;1.90;;;1.00;;
67747;SDS011;54543;50.712;6.070;2023-04-12T00:50:51;1.27;;;0.80;;
67747;SDS011;54543;50.712;6.070;2023-04-12T00:53:19;1.83;;;0.90;;
67747;SDS011;54543;50.712;6.070;2023-04-12T00:55:46;4.45;;;1.20;;
67747;SDS011;54543;50.712;6.070;2023-04-12T00:58:14;2.20;;;1.02;;
67747;SDS011;54543;50.712;6.070;2023-04-12T01:00:40;1.13;;;0.77;;
67747;SDS011;54543;50.712;6.070;2023-04-12T01:03:09;1.45;;;1.20;;
67747;SDS011;54543;50.712;6.070;2023-04-12T01:05:47;2.63;;;1.00;;
67747;SDS011;54543;50.712;6.070;2023-04-12T01:08:36;1.98;;;0.85;;
67747;SDS011;54543;50.712;6.070;2023-04-12T01:16:52;2.80;;;1.00;;
67747;SDS011;54543;50.712;6.070;2023-04-12T01:27:48;2.20;;;0.88;;
67747;SDS011;54543;50.712;6.070;2023-04-12T01:30:18;1.90;;;0.95;;
67747;SDS011;54543;50.712;6.070;2023-04-12T01:32:44;2.45;;;0.82;;
67747;SDS011;54543;50.712;6.070;2023-04-12T01:35:14;1.55;;;0.90;;
67747;SDS011;54543;50.712;6.070;2023-04-12T01:37:42;1.58;;;0.70;;
67747;SDS011;54543;50.712;6.070;2023-04-12T01:40:08;1.25;;;0.90;;
67747;SDS011;54543;50.712;6.070;2023-04-12T01:42:34;3.22;;;0.80;;
67747;SDS011;54543;50.712;6.070;2023-04-12T01:45:01;1.70;;;0.90;;
67747;SDS011;54543;50.712;6.070;2023-04-12T01:47:27;2.05;;;0.90;;
67747;SDS011;54543;50.712;6.070;2023-04-12T01:49:58;1.10;;;0.80;;
67747;SDS011;54543;50.712;6.070;2023-04-12T01:52:48;0.75;;;0.70;;
67747;SDS011;54543;50.712;6.070;2023-04-12T01:55:22;3.55;;;0.90;;
67747;SDS011;54543;50.712;6.070;2023-04-12T01:57:52;1.15;;;0.98;;
67747;SDS011;54543;50.712;6.070;2023-04-12T02:00:18;1.08;;;0.80;;
67747;SDS011;54543;50.712;6.070;2023-04-12T02:02:44;1.38;;;0.90;;
67747;SDS011;54543;50.712;6.070;2023-04-12T02:05:10;0.93;;;0.77;;
67747;SDS011;54543;50.712;6.070;2023-04-12T02:07:36;1.02;;;0.60;;
67747;SDS011;54543;50.712;6.070;2023-04-12T02:10:02;0.77;;;0.73;;
67747;SDS011;54543;50.712;6.070;2023-04-12T02:12:28;2.22;;;0.60;;
67747;SDS011;54543;50.712;6.070;2023-04-12T02:14:54;1.00;;;0.50;;
67747;SDS011;54543;50.712;6.070;2023-04-12T02:17:21;0.90;;;0.60;;
67747;SDS011;54543;50.712;6.070;2023-04-12T02:19:46;1.35;;;0.80;;
67747;SDS011;54543;50.712;6.070;2023-04-12T02:22:12;1.30;;;0.60;;
67747;SDS011;54543;50.712;6.070;2023-04-12T02:24:38;1.20;;;0.70;;
67747;SDS011;54543;50.712;6.070;2023-04-12T02:27:03;0.80;;;0.77;;
67747;SDS011;54543;50.712;6.070;2023-04-12T02:29:30;2.88;;;0.70;;
67747;SDS011;54543;50.712;6.070;2023-04-12T02:31:55;0.40;;;0.40;;
67747;SDS011;54543;50.712;6.070;2023-04-12T02:34:21;0.75;;;0.70;;
67747;SDS011;54543;50.712;6.070;2023-04-12T02:36:47;0.75;;;0.65;;
67747;SDS011;54543;50.712;6.070;2023-04-12T02:39:13;1.98;;;0.77;;
67747;SDS011;54543;50.712;6.070;2023-04-12T02:41:42;2.45;;;0.93;;
67747;SDS011;54543;50.712;6.070;2023-04-12T02:44:08;1.52;;;0.80;;
67747;SDS011;54543;50.712;6.070;2023-04-12T02:46:33;1.48;;;0.80;;
67747;SDS011;54543;50.712;6.070;2023-04-12T02:48:59;1.23;;;0.73;;
67747;SDS011;54543;50.712;6.070;2023-04-12T02:51:25;1.40;;;0.60;;
67747;SDS011;54543;50.712;6.070;2023-04-12T02:53:52;1.58;;;0.75;;
67747;SDS011;54543;50.712;6.070;2023-04-12T02:56:18;0.75;;;0.68;;
67747;SDS011;54543;50.712;6.070;2023-04-12T02:58:43;1.83;;;1.05;;
67747;SDS011;54543;50.712;6.070;2023-04-12T03:01:09;1.30;;;0.70;;
67747;SDS011;54543;50.712;6.070;2023-04-12T03:03:37;0.75;;;0.63;;
67747;SDS011;54543;50.712;6.070;2023-04-12T03:06:03;1.42;;;0.80;;
67747;SDS011;54543;50.712;6.070;2023-04-12T03:08:28;1.52;;;0.75;;
67747;SDS011;54543;50.712;6.070;2023-04-12T03:10:54;0.80;;;0.60;;
67747;SDS011;54543;50.712;6.070;2023-04-12T03:13:20;2.38;;;0.77;;
67747;SDS011;54543;50.712;6.070;2023-04-12T03:15:46;0.90;;;0.60;;
67747;SDS011;54543;50.712;6.070;2023-04-12T03:18:13;1.77;;;0.90;;
67747;SDS011;54543;50.712;6.070;2023-04-12T03:20:40;1.60;;;0.75;;
67747;SDS011;54543;50.712;6.070;2023-04-12T03:23:07;2.13;;;0.88;;
67747;SDS011;54543;50.712;6.070;2023-04-12T03:25:33;1.52;;;0.73;;
67747;SDS011;54543;50.712;6.070;2023-04-12T03:28:01;1.20;;;0.80;;
67747;SDS011;54543;50.712;6.070;2023-04-12T03:30:26;1.65;;;0.80;;
67747;SDS011;54543;50.712;6.070;2023-04-12T03:32:52;1.30;;;0.98;;
67747;SDS011;54543;50.712;6.070;2023-04-12T03:35:17;0.82;;;0.63;;
67747;SDS011;54543;50.712;6.070;2023-04-12T03:37:43;1.20;;;0.77;;
67747;SDS011;54543;50.712;6.070;2023-04-12T03:40:08;0.95;;;0.77;;
67747;SDS011;54543;50.712;6.070;2023-04-12T03:42:34;1.55;;;0.88;;
67747;SDS011;54543;50.712;6.070;2023-04-12T03:45:00;1.25;;;0.70;;
67747;SDS011;54543;50.712;6.070;2023-04-12T03:47:26;1.48;;;0.75;;
67747;SDS011;54543;50.712;6.070;2023-04-12T03:50:00;1.13;;;1.00;;
67747;SDS011;54543;50.712;6.070;2023-04-12T03:52:31;1.33;;;0.90;;
67747;SDS011;54543;50.712;6.070;2023-04-12T03:54:57;1.88;;;1.13;;
67747;SDS011;54543;50.712;6.070;2023-04-12T03:57:22;1.15;;;0.80;;
67747;SDS011;54543;50.712;6.070;2023-04-12T03:59:48;7.20;;;3.28;;
67747;SDS011;54543;50.712;6.070;2023-04-12T04:02:13;5.50;;;3.20;;
67747;SDS011;54543;50.712;6.070;2023-04-12T04:04:39;11.93;;;5.35;;
67747;SDS011;54543;50.712;6.070;2023-04-12T04:07:05;8.82;;;4.25;;
67747;SDS011;54543;50.712;6.070;2023-04-12T04:09:32;12.88;;;5.90;;
67747;SDS011;54543;50.712;6.070;2023-04-12T04:11:58;7.30;;;4.00;;
67747;SDS011;54543;50.712;6.070;2023-04-12T04:14:24;10.55;;;5.13;;
67747;SDS011;54543;50.712;6.070;2023-04-12T04:16:49;7.80;;;3.92;;
67747;SDS011;54543;50.712;6.070;2023-04-12T04:19:15;11.63;;;6.55;;
67747;SDS011;54543;50.712;6.070;2023-04-12T04:21:41;10.07;;;5.18;;
67747;SDS011;54543;50.712;6.070;2023-04-12T04:24:08;6.25;;;3.65;;
67747;SDS011;54543;50.712;6.070;2023-04-12T04:26:35;9.30;;;4.15;;
67747;SDS011;54543;50.712;6.070;2023-04-12T04:29:02;8.00;;;3.83;;
67747;SDS011;54543;50.712;6.070;2023-04-12T04:31:29;10.10;;;4.00;;
67747;SDS011;54543;50.712;6.070;2023-04-12T04:34:01;9.52;;;4.40;;
67747;SDS011;54543;50.712;6.070;2023-04-12T04:36:27;7.28;;;3.28;;
67747;SDS011;54543;50.712;6.070;2023-04-12T04:38:54;6.68;;;2.83;;
67747;SDS011;54543;50.712;6.070;2023-04-12T04:41:21;7.30;;;3.30;;
67747;SDS011;54543;50.712;6.070;2023-04-12T04:43:48;5.55;;;3.08;;
67747;SDS011;54543;50.712;6.070;2023-04-12T04:46:15;6.47;;;3.08;;
67747;SDS011;54543;50.712;6.070;2023-04-12T04:48:41;5.65;;;3.45;;
67747;SDS011;54543;50.712;6.070;2023-04-12T04:51:07;4.80;;;3.20;;
67747;SDS011;54543;50.712;6.070;2023-04-12T04:53:32;4.90;;;2.60;;
67747;SDS011;54543;50.712;6.070;2023-04-12T04:55:58;5.75;;;2.67;;
67747;SDS011;54543;50.712;6.070;2023-04-12T04:58:25;5.32;;;2.25;;
67747;SDS011;54543;50.712;6.070;2023-04-12T05:00:54;6.60;;;3.75;;
67747;SDS011;54543;50.712;6.070;2023-04-12T05:03:21;12.02;;;6.45;;
67747;SDS011;54543;50.712;6.070;2023-04-12T05:05:47;6.22;;;3.72;;
67747;SDS011;54543;50.712;6.070;2023-04-12T05:08:13;16.23;;;9.18;;
67747;SDS011;54543;50.712;6.070;2023-04-12T05:10:41;15.73;;;8.15;;
67747;SDS011;54543;50.712;6.070;2023-04-12T05:13:08;16.02;;;8.20;;
67747;SDS011;54543;50.712;6.070;2023-04-12T05:15:34;14.80;;;8.07;;
67747;SDS011;54543;50.712;6.070;2023-04-12T05:18:00;16.27;;;9.73;;
67747;SDS011;54543;50.712;6.070;2023-04-12T05:20:26;19.52;;;8.75;;
67747;SDS011;54543;50.712;6.070;2023-04-12T05:22:51;22.45;;;10.18;;
67747;SDS011;54543;50.712;6.070;2023-04-12T05:25:17;37.90;;;18.23;;
67747;SDS011;54543;50.712;6.070;2023-04-12T05:27:45;28.58;;;14.55;;
67747;SDS011;54543;50.712;6.070;2023-04-12T05:30:11;31.13;;;14.45;;
67747;SDS011;54543;50.712;6.070;2023-04-12T05:32:37;15.40;;;9.23;;
67747;SDS011;54543;50.712;6.070;2023-04-12T05:35:02;40.67;;;17.67;;
67747;SDS011;54543;50.712;6.070;2023-04-12T05:37:28;52.03;;;26.42;;
67747;SDS011;54543;50.712;6.070;2023-04-12T05:39:53;33.00;;;19.70;;
67747;SDS011;54543;50.712;6.070;2023-04-12T05:42:19;40.65;;;19.77;;
67747;SDS011;54543;50.712;6.070;2023-04-12T05:44:44;22.42;;;12.93;;
67747;SDS011;54543;50.712;6.070;2023-04-12T05:47:12;22.50;;;12.38;;
67747;SDS011;54543;50.712;6.070;2023-04-12T05:49:38;12.65;;;7.47;;
67747;SDS011;54543;50.712;6.070;2023-04-12T05:52:04;14.60;;;8.18;;
67747;SDS011;54543;50.712;6.070;2023-04-12T05:54:29;22.60;;;10.43;;
67747;SDS011;54543;50.712;6.070;2023-04-12T05:56:55;13.63;;;7.47;;
67747;SDS011;54543;50.712;6.070;2023-04-12T05:59:21;9.85;;;6.00;;
67747;SDS011;54543;50.712;6.070;2023-04-12T06:01:47;7.18;;;4.38;;
67747;SDS011;54543;50.712;6.070;2023-04-12T06:04:13;6.90;;;3.70;;
67747;SDS011;54543;50.712;6.070;2023-04-12T06:06:39;15.07;;;8.85;;
67747;SDS011;54543;50.712;6.070;2023-04-12T06:09:04;14.82;;;8.50;;
67747;SDS011;54543;50.712;6.070;2023-04-12T06:11:30;6.95;;;4.10;;
67747;SDS011;54543;50.712;6.070;2023-04-12T06:13:58;19.02;;;10.60;;
67747;SDS011;54543;50.712;6.070;2023-04-12T06:16:24;9.27;;;4.18;;
67747;SDS011;54543;50.712;6.070;2023-04-12T06:18:50;8.63;;;3.92;;
67747;SDS011;54543;50.712;6.070;2023-04-12T06:21:16;6.88;;;4.00;;
67747;SDS011;54543;50.712;6.070;2023-04-12T06:23:42;7.78;;;4.75;;
67747;SDS011;54543;50.712;6.070;2023-04-12T06:26:08;8.68;;;4.32;;
67747;SDS011;54543;50.712;6.070;2023-04-12T06:28:33;7.60;;;4.35;;
67747;SDS011;54543;50.712;6.070;2023-04-12T06:30:59;6.35;;;3.20;;
67747;SDS011;54543;50.712;6.070;2023-04-12T06:33:25;4.45;;;2.70;;
67747;SDS011;54543;50.712;6.070;2023-04-12T06:35:51;4.82;;;2.55;;
67747;SDS011;54543;50.712;6.070;2023-04-12T06:38:17;3.22;;;2.08;;
67747;SDS011;54543;50.712;6.070;2023-04-12T06:40:42;3.05;;;1.40;;
67747;SDS011;54543;50.712;6.070;2023-04-12T06:43:08;2.05;;;1.55;;
67747;SDS011;54543;50.712;6.070;2023-04-12T06:45:34;4.53;;;2.47;;
67747;SDS011;54543;50.712;6.070;2023-04-12T06:47:59;3.97;;;2.15;;
67747;SDS011;54543;50.712;6.070;2023-04-12T06:50:25;3.05;;;1.60;;
67747;SDS011;54543;50.712;6.070;2023-04-12T06:52:51;7.78;;;4.25;;
67747;SDS011;54543;50.712;6.070;2023-04-12T06:55:16;6.50;;;3.85;;
67747;SDS011;54543;50.712;6.070;2023-04-12T06:57:42;6.15;;;2.75;;
67747;SDS011;54543;50.712;6.070;2023-04-12T07:00:09;4.78;;;2.70;;
67747;SDS011;54543;50.712;6.070;2023-04-12T07:02:35;7.95;;;3.65;;
67747;SDS011;54543;50.712;6.070;2023-04-12T07:05:01;2.63;;;1.60;;
67747;SDS011;54543;50.712;6.070;2023-04-12T07:07:26;5.75;;;3.00;;
67747;SDS011;54543;50.712;6.070;2023-04-12T07:09:52;5.80;;;3.40;;
67747;SDS011;54543;50.712;6.070;2023-04-12T07:12:17;5.78;;;3.28;;
67747;SDS011;54543;50.712;6.070;2023-04-12T07:14:43;3.85;;;2.45;;
67747;SDS011;54543;50.712;6.070;2023-04-12T07:17:08;6.22;;;3.55;;
67747;SDS011;54543;50.712;6.070;2023-04-12T07:19:34;4.47;;;2.45;;
67747;SDS011;54543;50.712;6.070;2023-04-12T07:22:00;4.80;;;2.03;;
67747;SDS011;54543;50.712;6.070;2023-04-12T07:24:25;4.75;;;2.80;;
67747;SDS011;54543;50.712;6.070;2023-04-12T07:26:54;3.63;;;2.17;;
67747;SDS011;54543;50.712;6.070;2023-04-12T07:29:19;6.70;;;3.88;;
67747;SDS011;54543;50.712;6.070;2023-04-12T07:31:45;5.10;;;3.05;;
67747;SDS011;54543;50.712;6.070;2023-04-12T07:34:11;8.57;;;4.47;;
67747;SDS011;54543;50.712;6.070;2023-04-12T07:36:36;4.80;;;2.65;;
67747;SDS011;54543;50.712;6.070;2023-04-12T07:39:02;4.20;;;2.50;;
67747;SDS011;54543;50.712;6.070;2023-04-12T07:41:28;5.68;;;2.58;;
67747;SDS011;54543;50.712;6.070;2023-04-12T07:43:53;4.85;;;2.88;;
67747;SDS011;54543;50.712;6.070;2023-04-12T07:46:19;4.03;;;2.30;;
67747;SDS011;54543;50.712;6.070;2023-04-12T07:48:45;7.00;;;4.07;;
67747;SDS011;54543;50.712;6.070;2023-04-12T07:51:11;3.63;;;2.22;;
67747;SDS011;54543;50.712;6.070;2023-04-12T07:53:37;6.85;;;3.58;;
67747;SDS011;54543;50.712;6.070;2023-04-12T07:56:02;5.32;;;2.63;;
67747;SDS011;54543;50.712;6.070;2023-04-12T07:58:31;2.70;;;1.98;;
67747;SDS011;54543;50.712;6.070;2023-04-12T08:00:58;3.45;;;1.90;;
67747;SDS011;54543;50.712;6.070;2023-04-12T08:03:23;7.85;;;5.15;;
67747;SDS011;54543;50.712;6.070;2023-04-12T08:05:49;6.60;;;3.42;;
67747;SDS011;54543;50.712;6.070;2023-04-12T08:08:20;7.05;;;3.65;;
67747;SDS011;54543;50.712;6.070;2023-04-12T08:10:47;7.85;;;4.30;;
67747;SDS011;54543;50.712;6.070;2023-04-12T08:13:13;7.68;;;4.50;;
67747;SDS011;54543;50.712;6.070;2023-04-12T08:15:38;6.03;;;3.40;;
67747;SDS011;54543;50.712;6.070;2023-04-12T08:18:04;7.72;;;4.18;;
67747;SDS011;54543;50.712;6.070;2023-04-12T08:20:29;5.38;;;3.50;;
67747;SDS011;54543;50.712;6.070;2023-04-12T08:22:55;5.63;;;3.08;;
67747;SDS011;54543;50.712;6.070;2023-04-12T08:25:21;7.45;;;4.22;;
67747;SDS011;54543;50.712;6.070;2023-04-12T08:27:47;8.77;;;4.50;;
67747;SDS011;54543;50.712;6.070;2023-04-12T08:30:13;2.20;;;1.73;;
67747;SDS011;54543;50.712;6.070;2023-04-12T08:32:39;5.80;;;2.95;;
67747;SDS011;54543;50.712;6.070;2023-04-12T08:35:05;3.38;;;1.77;;
67747;SDS011;54543;50.712;6.070;2023-04-12T08:37:32;4.28;;;2.10;;
67747;SDS011;54543;50.712;6.070;2023-04-12T08:40:02;2.85;;;1.60;;
67747;SDS011;54543;50.712;6.070;2023-04-12T08:42:30;3.10;;;1.30;;
67747;SDS011;54543;50.712;6.070;2023-04-12T08:44:56;2.72;;;1.70;;
67747;SDS011;54543;50.712;6.070;2023-04-12T08:47:22;4.72;;;2.83;;
67747;SDS011;54543;50.712;6.070;2023-04-12T08:49:48;2.88;;;1.30;;
67747;SDS011;54543;50.712;6.070;2023-04-12T08:52:13;4.57;;;2.38;;
67747;SDS011;54543;50.712;6.070;2023-04-12T08:54:39;4.93;;;3.00;;
67747;SDS011;54543;50.712;6.070;2023-04-12T08:57:06;4.65;;;2.42;;
67747;SDS011;54543;50.712;6.070;2023-04-12T08:59:34;3.10;;;1.70;;
67747;SDS011;54543;50.712;6.070;2023-04-12T09:02:02;1.33;;;1.05;;
67747;SDS011;54543;50.712;6.070;2023-04-12T09:04:27;1.35;;;1.00;;
67747;SDS011;54543;50.712;6.070;2023-04-12T09:06:53;1.02;;;0.80;;
67747;SDS011;54543;50.712;6.070;2023-04-12T09:09:19;1.23;;;1.00;;
67747;SDS011;54543;50.712;6.070;2023-04-12T09:12:07;1.75;;;0.95;;
67747;SDS011;54543;50.712;6.070;2023-04-12T09:14:33;2.25;;;1.40;;
67747;SDS011;54543;50.712;6.070;2023-04-12T09:16:58;2.00;;;1.38;;
67747;SDS011;54543;50.712;6.070;2023-04-12T09:19:34;2.28;;;1.33;;
67747;SDS011;54543;50.712;6.070;2023-04-12T09:22:00;2.97;;;1.55;;
67747;SDS011;54543;50.712;6.070;2023-04-12T09:24:27;3.47;;;1.70;;
67747;SDS011;54543;50.712;6.070;2023-04-12T09:29:32;2.17;;;1.52;;
67747;SDS011;54543;50.712;6.070;2023-04-12T09:32:01;3.13;;;1.60;;
67747;SDS011;54543;50.712;6.070;2023-04-12T09:34:31;3.63;;;2.10;;
67747;SDS011;54543;50.712;6.070;2023-04-12T09:36:57;5.35;;;2.47;;
67747;SDS011;54543;50.712;6.070;2023-04-12T09:39:33;4.50;;;2.38;;
67747;SDS011;54543;50.712;6.070;2023-04-12T09:42:05;6.28;;;3.10;;
67747;SDS011;54543;50.712;6.070;2023-04-12T09:44:32;3.45;;;2.17;;
67747;SDS011;54543;50.712;6.070;2023-04-12T09:46:58;6.55;;;2.85;;
67747;SDS011;54543;50.712;6.070;2023-04-12T09:49:38;5.03;;;2.40;;
67747;SDS011;54543;50.712;6.070;2023-04-12T09:52:05;7.32;;;2.35;;
67747;SDS011;54543;50.712;6.070;2023-04-12T09:54:41;4.30;;;2.20;;
67747;SDS011;54543;50.712;6.070;2023-04-12T09:57:11;5.32;;;2.40;;
67747;SDS011;54543;50.712;6.070;2023-04-12T09:59:40;5.07;;;2.58;;
67747;SDS011;54543;50.712;6.070;2023-04-12T10:02:16;6.03;;;2.22;;
67747;SDS011;54543;50.712;6.070;2023-04-12T10:04:43;6.10;;;2.42;;
67747;SDS011;54543;50.712;6.070;2023-04-12T10:07:10;3.95;;;2.08;;
67747;SDS011;54543;50.712;6.070;2023-04-12T10:09:37;5.00;;;1.85;;
67747;SDS011;54543;50.712;6.070;2023-04-12T10:12:04;3.50;;;1.67;;
67747;SDS011;54543;50.712;6.070;2023-04-12T10:14:31;3.13;;;1.70;;
67747;SDS011;54543;50.712;6.070;2023-04-12T10:16:57;3.10;;;1.50;;
67747;SDS011;54543;50.712;6.070;2023-04-12T10:19:24;5.20;;;1.88;;
67747;SDS011;54543;50.712;6.070;2023-04-12T10:21:51;2.58;;;1.30;;
67747;SDS011;54543;50.712;6.070;2023-04-12T10:24:19;3.35;;;1.35;;
67747;SDS011;54543;50.712;6.070;2023-04-12T10:26:46;1.75;;;1.25;;
67747;SDS011;54543;50.712;6.070;2023-04-12T10:29:24;4.35;;;1.65;;
67747;SDS011;54543;50.712;6.070;2023-04-12T10:31:50;3.38;;;1.58;;
67747;SDS011;54543;50.712;6.070;2023-04-12T10:34:17;3.63;;;1.65;;
67747;SDS011;54543;50.712;6.070;2023-04-12T10:36:52;3.13;;;1.48;;
67747;SDS011;54543;50.712;6.070;2023-04-12T10:39:38;3.92;;;1.35;;
67747;SDS011;54543;50.712;6.070;2023-04-12T10:44:47;2.85;;;1.40;;
67747;SDS011;54543;50.712;6.070;2023-04-12T10:47:13;2.40;;;1.10;;
67747;SDS011;54543;50.712;6.070;2023-04-12T10:49:39;4.15;;;1.63;;
67747;SDS011;54543;50.712;6.070;2023-04-12T10:54:34;3.20;;;1.50;;
67747;SDS011;54543;50.712;6.070;2023-04-12T10:57:03;3.40;;;1.65;;
67747;SDS011;54543;50.712;6.070;2023-04-12T10:59:51;4.82;;;2.38;;
67747;SDS011;54543;50.712;6.070;2023-04-12T11:02:18;2.50;;;1.50;;
67747;SDS011;54543;50.712;6.070;2023-04-12T11:07:41;4.47;;;1.60;;
67747;SDS011;54543;50.712;6.070;2023-04-12T11:12:40;3.47;;;1.52;;
67747;SDS011;54543;50.712;6.070;2023-04-12T11:15:12;2.97;;;1.65;;
67747;SDS011;54543;50.712;6.070;2023-04-12T11:17:38;4.57;;;2.13;;
67747;SDS011;54543;50.712;6.070;2023-04-12T11:20:04;2.83;;;1.58;;
67747;SDS011;54543;50.712;6.070;2023-04-12T11:22:34;2.10;;;1.30;;
67747;SDS011;54543;50.712;6.070;2023-04-12T11:25:00;2.60;;;1.80;;
67747;SDS011;54543;50.712;6.070;2023-04-12T11:27:27;2.83;;;1.52;;
67747;SDS011;54543;50.712;6.070;2023-04-12T11:29:54;3.95;;;1.60;;
67747;SDS011;54543;50.712;6.070;2023-04-12T11:32:25;2.13;;;1.23;;
67747;SDS011;54543;50.712;6.070;2023-04-12T11:34:53;3.92;;;1.80;;
67747;SDS011;54543;50.712;6.070;2023-04-12T11:37:20;4.03;;;1.65;;
67747;SDS011;54543;50.712;6.070;2023-04-12T11:39:49;3.65;;;1.40;;
67747;SDS011;54543;50.712;6.070;2023-04-12T11:42:21;2.40;;;1.15;;
67747;SDS011;54543;50.712;6.070;2023-04-12T11:44:48;4.65;;;2.00;;
67747;SDS011;54543;50.712;6.070;2023-04-12T11:47:15;4.72;;;2.00;;
67747;SDS011;54543;50.712;6.070;2023-04-12T11:49:43;3.60;;;1.42;;
67747;SDS011;54543;50.712;6.070;2023-04-12T11:52:09;3.70;;;1.48;;
67747;SDS011;54543;50.712;6.070;2023-04-12T11:54:35;4.93;;;1.67;;
67747;SDS011;54543;50.712;6.070;2023-04-12T11:57:00;6.82;;;2.08;;
67747;SDS011;54543;50.712;6.070;2023-04-12T11:59:32;5.00;;;1.80;;
67747;SDS011;54543;50.712;6.070;2023-04-12T12:01:59;8.18;;;2.35;;
67747;SDS011;54543;50.712;6.070;2023-04-12T12:04:29;4.68;;;1.90;;
67747;SDS011;54543;50.712;6.070;2023-04-12T12:06:56;5.20;;;1.80;;
67747;SDS011;54543;50.712;6.070;2023-04-12T12:09:23;4.93;;;1.70;;
67747;SDS011;54543;50.712;6.070;2023-04-12T12:11:50;4.47;;;1.60;;
67747;SDS011;54543;50.712;6.070;2023-04-12T12:14:19;6.90;;;1.60;;
67747;SDS011;54543;50.712;6.070;2023-04-12T12:16:53;6.38;;;1.58;;
67747;SDS011;54543;50.712;6.070;2023-04-12T12:24:31;4.60;;;1.63;;
67747;SDS011;54543;50.712;6.070;2023-04-12T12:26:59;5.82;;;1.80;;
67747;SDS011;54543;50.712;6.070;2023-04-12T12:29:32;5.95;;;1.88;;
67747;SDS011;54543;50.712;6.070;2023-04-12T12:31:59;9.55;;;2.20;;
67747;SDS011;54543;50.712;6.070;2023-04-12T12:34:30;9.32;;;2.05;;
67747;SDS011;54543;50.712;6.070;2023-04-12T12:36:58;7.00;;;2.35;;
67747;SDS011;54543;50.712;6.070;2023-04-12T12:39:24;5.70;;;1.60;;
67747;SDS011;54543;50.712;6.070;2023-04-12T12:41:53;8.23;;;1.80;;
67747;SDS011;54543;50.712;6.070;2023-04-12T12:44:20;5.38;;;1.63;;
67747;SDS011;54543;50.712;6.070;2023-04-12T12:46:47;4.63;;;1.50;;
67747;SDS011;54543;50.712;6.070;2023-04-12T12:49:12;5.30;;;1.50;;
67747;SDS011;54543;50.712;6.070;2023-04-12T12:51:38;3.47;;;1.52;;
67747;SDS011;54543;50.712;6.070;2023-04-12T12:54:04;4.35;;;1.50;;
67747;SDS011;54543;50.712;6.070;2023-04-12T12:56:30;6.93;;;1.55;;
67747;SDS011;54543;50.712;6.070;2023-04-12T12:58:56;4.05;;;1.38;;
67747;SDS011;54543;50.712;6.070;2023-04-12T13:01:21;4.00;;;1.80;;
67747;SDS011;54543;50.712;6.070;2023-04-12T13:03:46;3.38;;;1.30;;
67747;SDS011;54543;50.712;6.070;2023-04-12T13:06:12;4.72;;;1.50;;
67747;SDS011;54543;50.712;6.070;2023-04-12T13:08:37;3.70;;;1.50;;
67747;SDS011;54543;50.712;6.070;2023-04-12T13:11:03;6.80;;;1.70;;
67747;SDS011;54543;50.712;6.070;2023-04-12T13:13:28;3.70;;;1.33;;
67747;SDS011;54543;50.712;6.070;2023-04-12T13:15:54;5.15;;;1.73;;
67747;SDS011;54543;50.712;6.070;2023-04-12T13:18:20;5.18;;;1.77;;
67747;SDS011;54543;50.712;6.070;2023-04-12T13:20:45;3.50;;;1.95;;
67747;SDS011;54543;50.712;6.070;2023-04-12T13:23:11;3.15;;;1.40;;
67747;SDS011;54543;50.712;6.070;2023-04-12T13:25:37;9.25;;;2.00;;
67747;SDS011;54543;50.712;6.070;2023-04-12T13:28:03;6.53;;;1.40;;
67747;SDS011;54543;50.712;6.070;2023-04-12T13:30:28;4.78;;;1.65;;
67747;SDS011;54543;50.712;6.070;2023-04-12T13:32:54;3.72;;;1.42;;
67747;SDS011;54543;50.712;6.070;2023-04-12T13:35:19;6.38;;;1.60;;
67747;SDS011;54543;50.712;6.070;2023-04-12T13:37:45;5.20;;;1.38;;
67747;SDS011;54543;50.712;6.070;2023-04-12T13:40:11;7.35;;;1.98;;
67747;SDS011;54543;50.712;6.070;2023-04-12T13:42:37;6.45;;;1.40;;
67747;SDS011;54543;50.712;6.070;2023-04-12T13:45:02;3.70;;;1.58;;
67747;SDS011;54543;50.712;6.070;2023-04-12T13:47:29;8.40;;;1.60;;
67747;SDS011;54543;50.712;6.070;2023-04-12T13:49:55;4.43;;;1.33;;
67747;SDS011;54543;50.712;6.070;2023-04-12T13:52:21;5.22;;;1.73;;
67747;SDS011;54543;50.712;6.070;2023-04-12T13:54:47;4.35;;;1.60;;
67747;SDS011;54543;50.712;6.070;2023-04-12T13:57:13;6.95;;;2.30;;
67747;SDS011;54543;50.712;6.070;2023-04-12T13:59:39;6.28;;;1.77;;
67747;SDS011;54543;50.712;6.070;2023-04-12T14:02:05;4.45;;;1.70;;
67747;SDS011;54543;50.712;6.070;2023-04-12T14:04:31;4.50;;;1.50;;
67747;SDS011;54543;50.712;6.070;2023-04-12T14:06:57;2.47;;;1.35;;
67747;SDS011;54543;50.712;6.070;2023-04-12T14:09:23;4.88;;;1.45;;
67747;SDS011;54543;50.712;6.070;2023-04-12T14:11:53;4.57;;;1.50;;
67747;SDS011;54543;50.712;6.070;2023-04-12T14:14:20;4.75;;;1.13;;
67747;SDS011;54543;50.712;6.070;2023-04-12T14:16:47;1.60;;;1.00;;
67747;SDS011;54543;50.712;6.070;2023-04-12T14:19:14;3.42;;;1.33;;
67747;SDS011;54543;50.712;6.070;2023-04-12T14:21:40;2.67;;;0.90;;
67747;SDS011;54543;50.712;6.070;2023-04-12T14:24:06;3.35;;;1.10;;
67747;SDS011;54543;50.712;6.070;2023-04-12T14:26:31;2.50;;;1.10;;
67747;SDS011;54543;50.712;6.070;2023-04-12T14:28:56;4.55;;;1.80;;
67747;SDS011;54543;50.712;6.070;2023-04-12T14:31:22;2.65;;;1.10;;
67747;SDS011;54543;50.712;6.070;2023-04-12T14:33:48;2.58;;;1.35;;
67747;SDS011;54543;50.712;6.070;2023-04-12T14:36:13;2.67;;;1.13;;
67747;SDS011;54543;50.712;6.070;2023-04-12T14:38:38;1.95;;;0.88;;
67747;SDS011;54543;50.712;6.070;2023-04-12T14:41:06;2.42;;;1.10;;
67747;SDS011;54543;50.712;6.070;2023-04-12T14:43:35;3.65;;;1.30;;
67747;SDS011;54543;50.712;6.070;2023-04-12T14:46:01;2.70;;;1.17;;
67747;SDS011;54543;50.712;6.070;2023-04-12T14:48:27;3.05;;;1.23;;
67747;SDS011;54543;50.712;6.070;2023-04-12T14:50:52;2.60;;;1.08;;
67747;SDS011;54543;50.712;6.070;2023-04-12T14:53:19;2.50;;;1.00;;
67747;SDS011;54543;50.712;6.070;2023-04-12T14:55:46;3.45;;;1.17;;
67747;SDS011;54543;50.712;6.070;2023-04-12T14:58:12;3.28;;;1.70;;
67747;SDS011;54543;50.712;6.070;2023-04-12T15:00:38;3.20;;;1.30;;
67747;SDS011;54543;50.712;6.070;2023-04-12T15:03:04;3.20;;;1.50;;
67747;SDS011;54543;50.712;6.070;2023-04-12T15:05:31;3.67;;;1.42;;
67747;SDS011;54543;50.712;6.070;2023-04-12T15:07:57;2.92;;;1.30;;
67747;SDS011;54543;50.712;6.070;2023-04-12T15:10:23;2.88;;;1.10;;
67747;SDS011;54543;50.712;6.070;2023-04-12T15:12:49;1.95;;;0.90;;
67747;SDS011;54543;50.712;6.070;2023-04-12T15:15:15;2.40;;;1.02;;
67747;SDS011;54543;50.712;6.070;2023-04-12T15:17:41;2.97;;;1.40;;